createdAt,value
2023-05-06T00:00:24.602Z,20.94
2023-05-06T00:03:29.114Z,21.90
2023-05-06T00:06:36.041Z,21.04
2023-05-06T00:09:47.812Z,20.72
2023-05-06T00:12:52.085Z,21.56
2023-05-06T00:15:59.031Z,20.91
2023-05-06T00:19:04.469Z,20.80
2023-05-06T00:22:08.469Z,20.15
2023-05-06T00:25:12.397Z,21.47
2023-05-06T00:28:16.774Z,21.63
2023-05-06T00:31:21.496Z,20.81
2023-05-06T00:34:28.134Z,20.94
2023-05-06T00:41:10.779Z,21.28
2023-05-06T00:44:20.609Z,20.36
2023-05-06T00:50:34.652Z,21.70
2023-05-06T00:53:48.843Z,22.74
2023-05-06T00:56:56.072Z,21.84
2023-05-06T01:00:02.912Z,20.79
2023-05-06T01:03:08.325Z,19.66
2023-05-06T01:06:22.458Z,20.38
2023-05-06T01:09:54.284Z,19.42
2023-05-06T01:13:23.561Z,18.84
2023-05-06T01:16:31.762Z,19.10
2023-05-06T01:20:07.252Z,19.92
2023-05-06T01:23:13.965Z,20.72
2023-05-06T01:26:21.677Z,20.34
2023-05-06T01:29:30.821Z,20.71
2023-05-06T01:33:04.514Z,20.67
2023-05-06T01:36:17.719Z,20.06
2023-05-06T01:43:57.992Z,21.42
2023-05-06T01:47:17.407Z,22.67
2023-05-06T01:51:16.682Z,21.83
2023-05-06T01:54:08.514Z,22.37
2023-05-06T01:57:39.919Z,21.07
2023-05-06T02:01:50.799Z,21.11
2023-05-06T02:04:42.948Z,20.02
2023-05-06T02:07:52.252Z,20.56
2023-05-06T02:11:02.366Z,19.81
2023-05-06T02:14:45.724Z,19.07
2023-05-06T02:17:54.784Z,19.05
2023-05-06T02:21:35.188Z,18.47
2023-05-06T02:24:42.962Z,18.15
2023-05-06T02:28:17.401Z,17.68
2023-05-06T02:31:25.436Z,17.40
2023-05-06T02:34:46.035Z,16.48
2023-05-06T02:37:55.715Z,16.16
2023-05-06T02:41:09.590Z,16.20
2023-05-06T02:44:54.781Z,15.38
2023-05-06T02:48:12.444Z,15.81
2023-05-06T02:51:27.797Z,16.53
2023-05-06T02:54:52.613Z,15.49
2023-05-06T02:57:57.564Z,15.28
2023-05-06T03:01:10.212Z,15.68
2023-05-06T03:04:27.124Z,15.90
2023-05-06T03:07:45.404Z,15.57
2023-05-06T03:14:22.452Z,16.33
2023-05-06T03:21:31.198Z,15.38
2023-05-06T03:25:16.834Z,15.52
2023-05-06T03:29:50.437Z,14.84
2023-05-06T03:38:07.604Z,14.62
2023-05-06T03:41:56.640Z,15.32
2023-05-06T03:49:05.970Z,16.91
2023-05-06T03:52:12.582Z,16.48
2023-05-06T03:55:17.405Z,16.44
2023-05-06T03:58:21.886Z,16.57
2023-05-06T04:01:29.721Z,16.98
2023-05-06T04:04:49.693Z,16.53
2023-05-06T04:07:54.271Z,16.85
2023-05-06T04:11:05.968Z,16.95
2023-05-06T04:14:13.676Z,17.20
2023-05-06T04:17:18.501Z,17.34
2023-05-06T04:20:27.382Z,17.33
2023-05-06T04:23:32.815Z,17.16
2023-05-06T04:26:41.227Z,17.21
2023-05-06T04:29:47.072Z,17.35
2023-05-06T04:32:56.177Z,16.84
2023-05-06T04:36:01.181Z,16.70
2023-05-06T04:39:09.709Z,16.13
2023-05-06T04:42:16.969Z,16.09
2023-05-06T04:45:33.881Z,16.04
2023-05-06T04:58:06.620Z,14.93
2023-05-06T05:01:43.055Z,15.80
2023-05-06T05:04:50.060Z,15.65
2023-05-06T05:07:54.684Z,16.10
2023-05-06T05:10:59.497Z,15.57
2023-05-06T05:14:06.786Z,15.17
2023-05-06T05:17:11.393Z,15.47
2023-05-06T05:20:16.753Z,15.48
2023-05-06T05:23:20.746Z,15.29
2023-05-06T05:26:27.464Z,14.88
2023-05-06T05:29:34.633Z,14.78
2023-05-06T05:32:42.433Z,14.43
2023-05-06T05:35:47.302Z,14.94
2023-05-06T05:38:52.429Z,15.66
2023-05-06T05:42:01.911Z,15.52
2023-05-06T05:45:06.193Z,16.18
2023-05-06T05:48:10.468Z,16.38
2023-05-06T05:51:15.411Z,16.20
2023-05-06T05:59:04.662Z,15.81
2023-05-06T06:03:30.357Z,16.08
2023-05-06T06:11:32.009Z,15.55
2023-05-06T06:15:08.953Z,15.41
2023-05-06T06:24:12.734Z,15.43
2023-05-06T06:36:40.651Z,15.78
2023-05-06T06:40:13.012Z,15.29
2023-05-06T06:43:26.862Z,15.65
2023-05-06T06:46:37.243Z,15.15
2023-05-06T06:49:44.742Z,13.64
2023-05-06T06:52:48.702Z,13.24
2023-05-06T06:57:21.172Z,12.25
2023-05-06T07:05:21.631Z,12.49
2023-05-06T07:08:53.947Z,12.52
2023-05-06T07:12:13.036Z,12.75
2023-05-06T07:15:28.621Z,13.02
2023-05-06T07:19:08.589Z,13.03
2023-05-06T07:22:25.425Z,13.67
2023-05-06T07:25:42.139Z,12.91
2023-05-06T07:28:54.346Z,12.65
2023-05-06T07:32:11.236Z,13.01
2023-05-06T07:35:29.217Z,13.34
2023-05-06T07:38:35.691Z,12.85
2023-05-06T07:41:55.351Z,12.30
2023-05-06T07:45:20.047Z,12.69
2023-05-06T07:48:36.438Z,12.65
2023-05-06T07:51:49.189Z,12.75
2023-05-06T07:54:59.902Z,13.15
2023-05-06T08:02:58.328Z,12.11
2023-05-06T08:06:33.118Z,12.80
2023-05-06T08:09:37.712Z,12.95
2023-05-06T08:12:44.728Z,13.23
2023-05-06T08:15:48.985Z,13.20
2023-05-06T08:18:55.821Z,13.02
2023-05-06T08:22:00.040Z,13.20
2023-05-06T08:25:05.809Z,12.96
2023-05-06T08:28:11.773Z,12.92
2023-05-06T08:31:16.263Z,12.85
2023-05-06T08:34:29.776Z,13.02
2023-05-06T08:37:34.853Z,12.91
2023-05-06T08:40:45.912Z,12.79
2023-05-06T08:43:51.392Z,12.88
2023-05-06T08:46:58.124Z,12.59
2023-05-06T08:50:02.464Z,12.62
2023-05-06T08:53:16.200Z,12.77
2023-05-06T08:56:30.156Z,12.52
2023-05-06T08:59:37.162Z,12.09
2023-05-06T09:03:28.385Z,11.43
2023-05-06T09:07:24.251Z,11.71
2023-05-06T09:10:57.101Z,11.88
2023-05-06T09:14:57.827Z,12.06
2023-05-06T09:18:08.910Z,11.66
2023-05-06T09:21:23.388Z,11.50
2023-05-06T09:24:44.568Z,11.49
2023-05-06T09:28:24.171Z,11.66
2023-05-06T09:31:55.864Z,11.86
2023-05-06T09:35:16.216Z,11.97
2023-05-06T09:56:16.803Z,11.40
2023-05-06T09:59:31.640Z,10.81
2023-05-06T10:03:13.521Z,10.62
2023-05-06T10:11:08.775Z,9.82
2023-05-06T10:14:16.190Z,10.81
2023-05-06T10:17:22.421Z,10.71
2023-05-06T10:20:28.703Z,10.35
2023-05-06T10:23:45.346Z,9.91
2023-05-06T10:26:56.371Z,9.82
2023-05-06T10:30:02.780Z,9.61
2023-05-06T10:33:10.436Z,9.48
2023-05-06T10:36:31.063Z,9.37
2023-05-06T10:39:35.563Z,9.43
2023-05-06T10:42:39.738Z,9.22
2023-05-06T10:46:07.904Z,9.32
2023-05-06T10:49:12.747Z,9.10
2023-05-06T10:52:24.864Z,8.60
2023-05-06T10:55:35.710Z,8.85
2023-05-06T10:58:50.633Z,8.68
2023-05-06T11:02:07.241Z,8.53
2023-05-06T11:05:13.261Z,8.45
2023-05-06T11:08:28.529Z,8.14
2023-05-06T11:12:05.798Z,8.31
2023-05-06T11:15:41.485Z,8.09
2023-05-06T11:18:49.870Z,8.02
2023-05-06T11:21:58.657Z,7.97
2023-05-06T11:25:07.688Z,7.85
2023-05-06T11:28:13.868Z,7.64
2023-05-06T11:31:23.182Z,7.23
2023-05-06T11:34:31.557Z,7.41
2023-05-06T11:37:39.016Z,7.55
2023-05-06T11:40:45.588Z,7.70
2023-05-06T11:43:51.189Z,7.60
2023-05-06T11:47:19.145Z,7.50
2023-05-06T11:50:26.426Z,7.29
2023-05-06T11:53:31.706Z,7.32
2023-05-06T11:56:58.131Z,7.27
2023-05-06T12:00:03.175Z,6.80
2023-05-06T12:03:20.919Z,6.69
2023-05-06T12:06:35.545Z,6.79
2023-05-06T12:10:09.845Z,6.62
2023-05-06T12:13:21.813Z,6.32
2023-05-06T12:16:30.474Z,6.25
2023-05-06T12:19:39.536Z,6.54
2023-05-06T12:22:48.916Z,6.78
2023-05-06T12:26:07.404Z,6.34
2023-05-06T12:29:18.143Z,6.23
2023-05-06T12:32:22.883Z,6.17
2023-05-06T12:35:29.505Z,6.00
2023-05-06T12:38:48.100Z,5.98
2023-05-06T12:42:22.119Z,5.36
2023-05-06T12:45:28.650Z,5.60
2023-05-06T12:48:36.697Z,5.48
2023-05-06T12:51:47.639Z,5.33
2023-05-06T12:54:55.801Z,5.31
2023-05-06T12:58:00.061Z,5.50
2023-05-06T13:01:08.673Z,5.29
2023-05-06T13:04:14.437Z,5.13
2023-05-06T13:07:22.105Z,5.05
2023-05-06T13:10:27.124Z,5.09
2023-05-06T13:13:32.145Z,4.84
2023-05-06T13:16:39.789Z,4.97
2023-05-06T13:19:44.145Z,5.15
2023-05-06T13:22:54.666Z,5.18
2023-05-06T13:26:04.244Z,4.76
2023-05-06T13:29:11.800Z,4.96
2023-05-06T13:32:25.544Z,5.26
2023-05-06T13:35:32.663Z,5.04
2023-05-06T13:38:43.681Z,4.35
2023-05-06T13:41:50.887Z,5.01
2023-05-06T13:44:55.475Z,4.86
2023-05-06T13:48:02.222Z,4.84
2023-05-06T13:51:09.824Z,4.75
2023-05-06T13:54:17.137Z,4.53
2023-05-06T13:57:23.055Z,4.17
2023-05-06T14:00:29.694Z,4.25
2023-05-06T14:03:33.955Z,4.17
2023-05-06T14:06:45.757Z,4.34
2023-05-06T14:09:52.850Z,4.14
2023-05-06T14:13:02.744Z,4.23
2023-05-06T14:16:11.220Z,4.43
2023-05-06T14:19:17.551Z,4.52
2023-05-06T14:22:26.651Z,4.60
2023-05-06T14:25:33.190Z,4.57
2023-05-06T14:28:37.221Z,4.23
2023-05-06T14:31:48.047Z,4.11
2023-05-06T14:34:52.032Z,3.98
2023-05-06T14:37:56.700Z,3.46
2023-05-06T14:41:01.889Z,3.13
2023-05-06T14:44:07.368Z,3.30
2023-05-06T14:47:11.801Z,3.32
2023-05-06T14:50:19.592Z,3.44
2023-05-06T14:53:26.850Z,3.36
2023-05-06T14:56:31.321Z,3.53
2023-05-06T14:59:36.058Z,3.43
2023-05-06T15:02:42.570Z,3.82
2023-05-06T15:05:47.201Z,3.91
2023-05-06T15:08:57.220Z,3.61
2023-05-06T15:12:02.640Z,3.46
2023-05-06T15:15:07.849Z,3.30
2023-05-06T15:18:14.145Z,3.25
2023-05-06T15:21:18.776Z,3.42
2023-05-06T15:24:23.703Z,3.13
2023-05-06T15:27:32.808Z,2.98
2023-05-06T15:30:39.285Z,3.31
2023-05-06T15:33:46.823Z,2.87
2023-05-06T15:36:55.249Z,3.02
2023-05-06T15:39:59.336Z,2.96
2023-05-06T15:43:06.364Z,3.05
2023-05-06T15:46:13.787Z,3.08
2023-05-06T15:49:47.452Z,2.92
2023-05-06T15:52:46.488Z,2.74
2023-05-06T15:55:57.218Z,2.83
2023-05-06T15:59:09.146Z,2.81
2023-05-06T16:05:23.895Z,2.78
2023-05-06T16:08:28.460Z,2.73
2023-05-06T16:11:32.992Z,2.55
2023-05-06T16:14:39.894Z,2.45
2023-05-06T16:17:44.611Z,2.51
2023-05-06T16:20:50.076Z,2.69
2023-05-06T16:23:54.579Z,2.29
2023-05-06T16:27:28.980Z,1.97
2023-05-06T16:30:33.252Z,2.25
2023-05-06T16:33:38.126Z,2.88
2023-05-06T16:36:42.677Z,2.75
2023-05-06T16:39:46.654Z,2.50
2023-05-06T16:42:53.242Z,2.55
2023-05-06T16:45:57.764Z,2.72
2023-05-06T16:49:04.683Z,2.52
2023-05-06T16:52:08.983Z,2.35
2023-05-06T16:55:13.585Z,2.14
2023-05-06T16:58:17.470Z,2.29
2023-05-06T17:01:22.179Z,2.30
2023-05-06T17:04:25.882Z,2.30
2023-05-06T17:07:33.330Z,2.43
2023-05-06T17:10:37.666Z,2.40
2023-05-06T17:13:41.871Z,1.96
2023-05-06T17:16:46.537Z,2.08
2023-05-06T17:19:50.609Z,2.11
2023-05-06T17:22:55.120Z,2.07
2023-05-06T17:25:59.664Z,2.15
2023-05-06T17:29:14.130Z,1.28
2023-05-06T17:32:21.258Z,1.88
2023-05-06T17:35:25.870Z,1.66
2023-05-06T17:38:31.417Z,1.81
2023-05-06T17:41:38.398Z,1.77
2023-05-06T17:44:45.353Z,1.83
2023-05-06T17:47:50.894Z,1.95
2023-05-06T17:51:06.807Z,1.93
2023-05-06T17:54:11.381Z,2.12
2023-05-06T17:57:17.165Z,1.93
2023-05-06T18:00:21.153Z,1.97
2023-05-06T18:03:25.205Z,1.88
2023-05-06T18:06:32.730Z,1.58
2023-05-06T18:09:38.684Z,1.88
2023-05-06T18:12:48.871Z,1.95
2023-05-06T18:15:53.487Z,1.99
2023-05-06T18:18:58.365Z,2.22
2023-05-06T18:22:02.723Z,2.59
2023-05-06T18:25:08.168Z,2.82
2023-05-06T18:28:12.901Z,2.54
2023-05-06T18:31:41.581Z,2.63
2023-05-06T18:34:48.908Z,2.23
2023-05-06T18:37:57.636Z,2.71
2023-05-06T18:41:04.137Z,2.67
2023-05-06T18:44:08.978Z,2.77
2023-05-06T18:47:13.333Z,2.85
2023-05-06T18:50:20.941Z,2.86
2023-05-06T18:53:25.527Z,2.73
2023-05-06T18:56:31.142Z,3.04
2023-05-06T18:59:37.482Z,3.06
2023-05-06T19:02:42.139Z,3.00
2023-05-06T19:05:49.093Z,3.04
2023-05-06T19:08:54.471Z,2.93
2023-05-06T19:11:58.732Z,2.87
2023-05-06T19:15:03.039Z,2.70
2023-05-06T19:18:08.223Z,2.74
2023-05-06T19:21:13.646Z,3.01
2023-05-06T19:24:18.084Z,3.00
2023-05-06T19:27:22.597Z,3.07
2023-05-06T19:30:32.598Z,3.35
2023-05-06T19:33:45.971Z,3.04
2023-05-06T19:36:55.639Z,3.14
2023-05-06T19:40:10.050Z,3.10
2023-05-06T19:43:16.856Z,2.92
2023-05-06T19:46:30.453Z,2.80
2023-05-06T19:49:40.589Z,2.76
2023-05-06T19:52:59.016Z,2.86
2023-05-06T19:56:50.412Z,3.05
2023-05-06T20:00:12.522Z,3.26
2023-05-06T20:03:19.678Z,3.76
2023-05-06T20:06:38.036Z,3.95
2023-05-06T20:09:57.670Z,3.68
2023-05-06T20:13:08.024Z,4.20
2023-05-06T20:16:17.288Z,4.18
2023-05-06T20:19:53.351Z,4.31
2023-05-06T20:22:59.757Z,3.69
2023-05-06T20:26:06.688Z,4.26
2023-05-06T20:29:11.129Z,4.35
2023-05-06T20:32:28.684Z,4.51
2023-05-06T20:35:41.702Z,4.55
2023-05-06T20:43:01.911Z,4.68
2023-05-06T20:46:07.589Z,4.92
2023-05-06T20:49:12.622Z,5.19
2023-05-06T20:52:25.320Z,5.42
2023-05-06T20:55:43.971Z,5.49
2023-05-06T20:58:50.522Z,5.21
2023-05-06T21:01:59.587Z,5.49
2023-05-06T21:05:05.443Z,5.39
2023-05-06T21:08:14.310Z,5.41
2023-05-06T21:11:19.956Z,5.48
2023-05-06T21:14:31.058Z,5.12
2023-05-06T21:17:40.065Z,5.62
2023-05-06T21:21:01.593Z,5.55
2023-05-06T21:24:12.683Z,5.75
2023-05-06T21:27:19.117Z,5.70
2023-05-06T21:30:25.521Z,5.94
2023-05-06T21:33:30.021Z,6.06
2023-05-06T21:36:39.464Z,6.21
2023-05-06T21:40:05.158Z,6.58
2023-05-06T21:43:26.593Z,6.88
2023-05-06T21:46:35.810Z,6.71
2023-05-06T21:50:08.399Z,6.93
2023-05-06T21:53:14.073Z,7.16
2023-05-06T21:56:23.815Z,7.99
2023-05-06T21:59:29.599Z,9.05
2023-05-06T22:02:46.495Z,9.73
2023-05-06T22:05:53.267Z,10.23
2023-05-06T22:09:09.729Z,10.77
2023-05-06T22:12:19.829Z,11.31
2023-05-06T22:19:35.290Z,12.91
2023-05-06T22:22:45.349Z,12.72
2023-05-06T22:25:49.929Z,13.31
2023-05-06T22:28:56.391Z,13.86
2023-05-06T22:32:06.906Z,14.22
2023-05-06T22:35:14.857Z,14.57
2023-05-06T22:38:19.721Z,14.96
2023-05-06T22:41:24.387Z,15.46
2023-05-06T22:45:15.650Z,15.20
2023-05-06T22:50:01.201Z,16.41
2023-05-06T22:53:38.589Z,16.57
2023-05-06T22:56:46.464Z,16.52
2023-05-06T22:59:50.905Z,16.55
2023-05-06T23:02:55.413Z,17.17
2023-05-06T23:05:59.325Z,16.87
2023-05-06T23:09:06.470Z,16.24
2023-05-06T23:12:10.930Z,16.01
2023-05-06T23:15:33.330Z,15.07
2023-05-06T23:18:47.055Z,15.54
2023-05-06T23:21:51.406Z,16.31
2023-05-06T23:24:56.723Z,16.25
2023-05-06T23:28:01.098Z,15.73
2023-05-06T23:31:05.622Z,15.81
2023-05-06T23:34:10.036Z,16.86
2023-05-06T23:37:20.087Z,16.75
2023-05-06T23:40:24.536Z,17.28
2023-05-06T23:43:29.035Z,17.69
2023-05-06T23:46:33.652Z,17.92
2023-05-06T23:49:38.126Z,18.00
2023-05-06T23:52:42.614Z,17.78
2023-05-06T23:55:50.179Z,18.32
2023-05-06T23:58:57.456Z,19.00
